Hesperides — EBBW — position and weather

sailwx.info

Track history (hours):
 
Tides and Currents Weather Stations Pressure Air Temp Water Temp Dewpoint Dewpoint Depression Visibility Wind Speed Wind Dir Waves Ship Positions

Oceanographic research ship Hesperides (Spain)

Detailed information on ship capabilities available from University of Delaware's Ocean Information Center.

Last reported at 2018-Jun-22 09:06 UTC. Time now 2018-Jun-24 09:18 UTC.
Position N 28°23' W 014°47'.

Length 82 m; draft 5.5 m.

Type: Ship. MMSI: 224886000.

Date/timePositionNaut miles runAvg speedWind from/ knotsBaromVisibWave heightAir tempDewpointWater temp
2018-Jun-22 09:06N 28°23' W 014°47'212.0
2018-Jun-22 08:58N 28°22' W 014°47'612.1
2018-Jun-22 08:31N 28°16' W 014°50'612.2
2018-Jun-22 08:00N 28°11' W 014°52'612.1
2018-Jun-22 07:30N 28°05' W 014°54'510.5
2018-Jun-22 07:01N 28°00' W 014°56'510.9
2018-Jun-22 06:30N 27°55' W 014°58'610.9
2018-Jun-22 06:00N 27°50' W 015°00'510.6
2018-Jun-22 05:30N 27°45' W 015°03'510.6
2018-Jun-22 04:59N 27°42' W 015°08'  
2018-Jun-13 02:50N 27°45' W 015°18'410.3
2018-Jun-13 02:29N 27°48' W 015°18'510.5
2018-Jun-13 02:00N 27°53' W 015°18'510.7
2018-Jun-13 01:30N 27°59' W 015°18'510.8
2018-Jun-13 01:00N 28°04' W 015°18'510.6
2018-Jun-13 00:30N 28°09' W 015°17'510.4
2018-Jun-13 00:00N 28°14' W 015°16'510.4
2018-Jun-12 23:30N 28°20' W 015°15'510.3
2018-Jun-12 23:00N 28°25' W 015°15'510.3
2018-Jun-12 22:30N 28°30' W 015°14'510.6
2018-Jun-12 22:00N 28°35' W 015°13'  
Track history (hours):
 
Tides and Currents Weather Stations Pressure Air Temp Water Temp Dewpoint Dewpoint Depression Visibility Wind Speed Wind Dir Waves Ship Positions

Oceanographic research ship Hesperides (Spain)

Detailed information on ship capabilities available from University of Delaware's Ocean Information Center.

Last reported at 2018-Jun-22 09:06 UTC. Time now 2018-Jun-24 09:18 UTC.
Position N 28°23' W 014°47'.

Length 82 m; draft 5.5 m.

Type: Ship. MMSI: 224886000.

Date/timePositionNaut miles runAvg speedWind from/ knotsBaromVisibWave heightAir tempDewpointWater temp
2018-Jun-22 09:06N 28°23' W 014°47'212.0
2018-Jun-22 08:58N 28°22' W 014°47'612.1
2018-Jun-22 08:31N 28°16' W 014°50'612.2
2018-Jun-22 08:00N 28°11' W 014°52'612.1
2018-Jun-22 07:30N 28°05' W 014°54'510.5
2018-Jun-22 07:01N 28°00' W 014°56'510.9
2018-Jun-22 06:30N 27°55' W 014°58'610.9
2018-Jun-22 06:00N 27°50' W 015°00'510.6
2018-Jun-22 05:30N 27°45' W 015°03'510.6
2018-Jun-22 04:59N 27°42' W 015°08'  
2018-Jun-13 02:50N 27°45' W 015°18'410.3
2018-Jun-13 02:29N 27°48' W 015°18'510.5
2018-Jun-13 02:00N 27°53' W 015°18'510.7
2018-Jun-13 01:30N 27°59' W 015°18'510.8
2018-Jun-13 01:00N 28°04' W 015°18'510.6
2018-Jun-13 00:30N 28°09' W 015°17'510.4
2018-Jun-13 00:00N 28°14' W 015°16'510.4
2018-Jun-12 23:30N 28°20' W 015°15'510.3
2018-Jun-12 23:00N 28°25' W 015°15'510.3
2018-Jun-12 22:30N 28°30' W 015°14'510.6
2018-Jun-12 22:00N 28°35' W 015°13'  

Dump ship's entire track history